createdAt,value
2022-10-17T00:01:12.508Z,24.20
2022-10-17T00:03:41.356Z,23.40
2022-10-17T00:06:15.246Z,23.40
2022-10-17T00:08:44.671Z,25.70
2022-10-17T00:11:24.208Z,25.80
2022-10-17T00:13:56.078Z,24.80
2022-10-17T00:16:36.725Z,25.60
2022-10-17T00:19:07.396Z,23.40
2022-10-17T00:21:35.662Z,23.40
2022-10-17T00:24:04.358Z,21.30
2022-10-17T00:26:33.008Z,23.90
2022-10-17T00:29:01.589Z,24.20
2022-10-17T00:31:29.876Z,26.00
2022-10-17T00:33:58.082Z,24.80
2022-10-17T00:36:27.053Z,25.20
2022-10-17T00:38:59.777Z,24.20
2022-10-17T00:41:32.829Z,25.20
2022-10-17T00:44:24.490Z,26.70
2022-10-17T00:46:53.467Z,25.60
2022-10-17T00:49:25.118Z,26.10
2022-10-17T00:51:58.020Z,25.10
2022-10-17T00:54:35.170Z,23.80
2022-10-17T00:57:04.678Z,22.30
2022-10-17T00:59:36.250Z,24.50
2022-10-17T01:02:10.168Z,24.20
2022-10-17T01:04:40.712Z,25.60
2022-10-17T01:07:10.286Z,22.90
2022-10-17T01:09:40.864Z,23.40
2022-10-17T01:12:23.883Z,25.10
2022-10-17T01:15:26.339Z,26.00
2022-10-17T01:18:40.412Z,23.90
2022-10-17T01:21:38.794Z,22.90
2022-10-17T01:24:33.262Z,23.10
2022-10-17T01:27:37.585Z,24.70
2022-10-17T01:30:35.210Z,24.20
2022-10-17T01:33:19.810Z,23.90
2022-10-17T01:36:07.483Z,24.60
2022-10-17T01:39:11.343Z,24.20
2022-10-17T01:41:58.397Z,23.40
2022-10-17T01:44:56.951Z,25.60
2022-10-17T01:47:31.941Z,24.50
2022-10-17T01:50:14.187Z,25.90
2022-10-17T01:53:13.422Z,26.30
2022-10-17T01:55:45.972Z,26.20
2022-10-17T01:58:26.858Z,26.70
2022-10-17T02:00:58.141Z,24.30
2022-10-17T02:03:28.390Z,25.10
2022-10-17T02:05:56.691Z,25.60
2022-10-17T02:08:50.275Z,23.90
2022-10-17T02:11:24.653Z,26.50
2022-10-17T02:14:18.019Z,26.00
2022-10-17T02:17:08.455Z,26.60
2022-10-17T02:20:07.466Z,28.00
2022-10-17T02:22:58.667Z,27.50
2022-10-17T02:25:51.311Z,24.90
2022-10-17T02:28:25.609Z,27.60
2022-10-17T02:31:00.927Z,28.40
2022-10-17T02:36:15.119Z,26.00
2022-10-17T02:38:45.711Z,27.00
2022-10-17T02:41:18.133Z,29.50
2022-10-17T02:43:50.490Z,26.00
2022-10-17T02:46:23.334Z,27.70
2022-10-17T02:49:01.819Z,26.80
2022-10-17T02:51:52.467Z,28.30
2022-10-17T02:54:31.812Z,27.60
2022-10-17T02:57:14.976Z,26.60
2022-10-17T02:59:45.548Z,26.20
2022-10-17T03:02:13.762Z,27.60
2022-10-17T03:04:47.094Z,28.30
2022-10-17T03:07:15.378Z,26.60
2022-10-17T03:09:43.601Z,26.50
2022-10-17T03:12:11.807Z,28.50
2022-10-17T03:14:40.007Z,27.50
2022-10-17T03:17:08.215Z,25.00
2022-10-17T03:19:36.398Z,28.20
2022-10-17T03:22:04.607Z,27.80
2022-10-17T03:24:32.816Z,29.00
2022-10-17T03:27:01.051Z,27.70
2022-10-17T03:29:29.487Z,30.10
2022-10-17T03:31:57.858Z,25.80
2022-10-17T03:34:26.062Z,27.80
2022-10-17T03:36:54.319Z,29.20
2022-10-17T03:39:22.733Z,27.00
2022-10-17T03:41:50.971Z,27.70
2022-10-17T03:44:19.142Z,27.20
2022-10-17T03:46:47.390Z,30.20
2022-10-17T03:49:15.603Z,26.60
2022-10-17T03:51:43.786Z,26.30
2022-10-17T03:54:12.024Z,26.80
2022-10-17T03:56:40.439Z,25.30
2022-10-17T03:59:14.485Z,27.90
2022-10-17T04:01:42.968Z,27.70
2022-10-17T04:04:11.286Z,27.00
2022-10-17T04:06:39.567Z,27.30
2022-10-17T04:09:08.095Z,27.80
2022-10-17T04:11:36.473Z,27.00
2022-10-17T04:14:04.862Z,25.20
2022-10-17T04:16:33.134Z,26.80
2022-10-17T04:19:01.767Z,25.10
2022-10-17T04:21:30.456Z,26.80
2022-10-17T04:24:00.744Z,27.60
2022-10-17T04:26:29.043Z,27.30
2022-10-17T04:28:57.503Z,27.50
2022-10-17T04:31:25.705Z,26.70
2022-10-17T04:33:53.868Z,27.60
2022-10-17T04:36:23.058Z,27.00
2022-10-17T04:38:51.316Z,28.30
2022-10-17T04:41:19.758Z,27.40
2022-10-17T04:43:50.981Z,28.00
2022-10-17T04:46:19.717Z,28.30
2022-10-17T04:48:47.888Z,27.30
2022-10-17T04:51:20.732Z,26.30
2022-10-17T04:53:51.673Z,25.50
2022-10-17T04:56:23.450Z,27.70
2022-10-17T04:58:52.260Z,26.70
2022-10-17T05:01:23.565Z,27.00
2022-10-17T05:03:53.542Z,27.00
2022-10-17T05:06:25.182Z,25.60
2022-10-17T05:08:53.753Z,27.50
2022-10-17T05:11:26.054Z,25.00
2022-10-17T05:13:57.949Z,24.80
2022-10-17T05:16:27.900Z,25.40
2022-10-17T05:18:59.060Z,24.80
2022-10-17T05:21:29.945Z,24.70
2022-10-17T05:23:58.693Z,24.80
2022-10-17T05:26:26.994Z,26.00
2022-10-17T05:28:55.231Z,24.90
2022-10-17T05:31:23.523Z,24.90
2022-10-17T05:33:51.860Z,25.90
2022-10-17T05:36:20.214Z,26.20
2022-10-17T05:38:52.214Z,25.20
2022-10-17T05:41:20.964Z,25.40
2022-10-17T05:43:50.325Z,24.50
2022-10-17T05:46:18.685Z,28.20
2022-10-17T05:48:46.994Z,25.00
2022-10-17T05:51:15.203Z,26.70
2022-10-17T05:53:43.457Z,26.30
2022-10-17T05:56:13.322Z,25.60
2022-10-17T05:58:50.328Z,25.60
2022-10-17T06:01:20.307Z,25.10
2022-10-17T06:03:48.639Z,25.70
2022-10-17T06:06:18.235Z,27.50
2022-10-17T06:08:46.593Z,27.50
2022-10-17T06:11:15.431Z,26.50
2022-10-17T06:13:43.743Z,27.60
2022-10-17T06:16:12.010Z,27.50
2022-10-17T06:18:40.237Z,25.90
2022-10-17T06:21:11.724Z,24.90
2022-10-17T06:23:39.981Z,27.40
2022-10-17T06:26:08.804Z,26.60
2022-10-17T06:28:37.237Z,27.60
2022-10-17T06:31:12.529Z,25.30
2022-10-17T06:36:13.156Z,24.80
2022-10-17T06:38:41.435Z,27.90
2022-10-17T06:41:15.917Z,26.50
2022-10-17T06:43:48.990Z,27.50
2022-10-17T06:46:19.142Z,26.80
2022-10-17T06:48:47.321Z,28.80
2022-10-17T06:51:15.550Z,27.10
2022-10-17T06:53:43.722Z,27.10
2022-10-17T06:56:11.969Z,28.00
2022-10-17T06:58:40.715Z,28.40
2022-10-17T07:01:12.535Z,26.70
2022-10-17T07:03:41.302Z,28.40
2022-10-17T07:06:13.422Z,28.90
2022-10-17T07:08:46.147Z,28.30
2022-10-17T07:11:17.792Z,27.10
2022-10-17T07:13:46.603Z,27.80
2022-10-17T07:16:16.029Z,27.50
2022-10-17T07:18:44.434Z,27.00
2022-10-17T07:21:12.680Z,26.30
2022-10-17T07:23:41.531Z,25.00
2022-10-17T07:26:13.042Z,23.60
2022-10-17T07:28:44.622Z,25.10
2022-10-17T07:31:17.394Z,24.20
2022-10-17T07:36:19.385Z,25.20
2022-10-17T07:38:47.619Z,23.20
2022-10-17T07:41:19.284Z,23.50
2022-10-17T07:43:49.932Z,23.60
2022-10-17T07:46:18.325Z,24.20
2022-10-17T07:48:46.646Z,23.30
2022-10-17T07:51:16.851Z,22.10
2022-10-17T07:53:48.069Z,23.10
2022-10-17T07:56:17.308Z,23.00
2022-10-17T07:58:45.621Z,22.40
2022-10-17T08:01:15.543Z,22.30
2022-10-17T08:03:46.178Z,20.90
2022-10-17T08:06:15.632Z,22.10
2022-10-17T08:08:44.476Z,21.00
2022-10-17T08:11:14.769Z,22.10
2022-10-17T08:13:43.626Z,21.30
2022-10-17T08:16:13.552Z,21.10
2022-10-17T08:18:43.413Z,20.30
2022-10-17T08:21:13.495Z,18.80
2022-10-17T08:23:42.097Z,19.00
2022-10-17T08:26:13.351Z,20.50
2022-10-17T08:28:41.760Z,18.60
2022-10-17T08:31:13.892Z,18.90
2022-10-17T08:33:42.874Z,18.60
2022-10-17T08:36:16.612Z,17.80
2022-10-17T08:38:47.970Z,17.90
2022-10-17T08:41:34.920Z,17.70
2022-10-17T08:44:18.728Z,17.70
2022-10-17T08:46:52.111Z,19.70
2022-10-17T08:49:47.604Z,17.90
2022-10-17T08:52:54.106Z,16.20
2022-10-17T08:55:46.246Z,15.60
2022-10-17T08:58:26.114Z,16.70
2022-10-17T09:01:19.770Z,17.90
2022-10-17T09:04:03.425Z,16.80
2022-10-17T09:07:25.166Z,15.20
2022-10-17T09:10:17.211Z,16.50
2022-10-17T09:13:18.634Z,16.40
2022-10-17T09:16:40.729Z,15.50
2022-10-17T09:19:25.789Z,13.70
2022-10-17T09:22:04.476Z,14.60
2022-10-17T09:24:51.006Z,14.60
2022-10-17T09:27:48.770Z,15.60
2022-10-17T09:31:04.343Z,13.80
2022-10-17T09:33:59.985Z,14.60
2022-10-17T09:36:34.167Z,14.60
2022-10-17T09:39:33.562Z,15.70
2022-10-17T09:42:03.324Z,13.70
2022-10-17T09:44:35.544Z,14.10
2022-10-17T09:47:25.796Z,12.60
2022-10-17T09:49:54.638Z,13.30
2022-10-17T09:52:42.394Z,13.60
2022-10-17T09:55:35.342Z,13.20
2022-10-17T09:58:07.369Z,12.60
2022-10-17T10:00:46.431Z,12.90
2022-10-17T10:03:27.571Z,13.50
2022-10-17T10:06:19.091Z,12.00
2022-10-17T10:09:04.997Z,11.90
2022-10-17T10:11:55.112Z,11.90
2022-10-17T10:14:37.550Z,12.30
2022-10-17T10:17:41.709Z,10.60
2022-10-17T10:20:35.156Z,12.70
2022-10-17T10:23:17.334Z,12.00
2022-10-17T10:25:56.025Z,12.00
2022-10-17T10:28:36.619Z,11.60
2022-10-17T10:31:08.524Z,12.00
2022-10-17T10:33:42.185Z,12.30
2022-10-17T10:36:10.562Z,11.80
2022-10-17T10:38:42.517Z,10.80
2022-10-17T10:41:11.754Z,10.70
2022-10-17T10:43:46.764Z,11.20
2022-10-17T10:46:27.436Z,12.20
2022-10-17T10:49:01.661Z,12.20
2022-10-17T10:54:28.777Z,11.10
2022-10-17T10:57:03.435Z,11.20
2022-10-17T10:59:47.530Z,12.40
2022-10-17T11:02:47.595Z,11.30
2022-10-17T11:05:40.559Z,11.30
2022-10-17T11:08:26.728Z,12.00
2022-10-17T11:11:34.610Z,11.80
2022-10-17T11:14:53.504Z,11.20
2022-10-17T11:17:45.385Z,11.20
2022-10-17T11:21:03.452Z,10.10
2022-10-17T11:23:46.876Z,11.00
2022-10-17T11:26:28.884Z,11.60
2022-10-17T11:29:02.246Z,10.50
2022-10-17T11:31:43.723Z,10.90
2022-10-17T11:34:20.694Z,10.90
2022-10-17T11:36:54.954Z,10.00
2022-10-17T11:39:37.706Z,11.40
2022-10-17T11:42:12.912Z,9.80
2022-10-17T11:44:42.926Z,10.70
2022-10-17T11:47:48.899Z,10.60
2022-10-17T11:53:50.339Z,10.50
2022-10-17T11:56:33.007Z,10.50
2022-10-17T11:59:38.434Z,10.60
2022-10-17T12:02:51.156Z,11.70
2022-10-17T12:05:46.565Z,12.10
2022-10-17T12:08:30.464Z,11.50
2022-10-17T12:11:18.946Z,12.40
2022-10-17T12:13:54.568Z,12.70
2022-10-17T12:16:23.419Z,10.60
2022-10-17T12:19:00.712Z,11.70
2022-10-17T12:21:55.882Z,10.20
2022-10-17T12:24:42.311Z,11.40
2022-10-17T12:27:36.179Z,11.60
2022-10-17T12:30:26.392Z,11.70
2022-10-17T12:33:11.442Z,12.50
2022-10-17T12:35:39.915Z,12.10
2022-10-17T12:38:21.663Z,11.50
2022-10-17T12:40:53.706Z,12.00
2022-10-17T12:43:27.798Z,12.50
2022-10-17T12:46:04.975Z,11.60
2022-10-17T12:48:36.283Z,11.00
2022-10-17T12:51:35.184Z,12.00
2022-10-17T12:54:15.124Z,11.20
2022-10-17T12:56:49.485Z,11.90
2022-10-17T12:59:28.527Z,12.50
2022-10-17T13:02:03.509Z,12.50
2022-10-17T13:04:32.102Z,12.50
2022-10-17T13:07:01.395Z,13.00
2022-10-17T13:09:38.745Z,12.20
2022-10-17T13:12:18.685Z,11.60
2022-10-17T13:14:50.315Z,11.60
2022-10-17T13:17:30.698Z,12.70
2022-10-17T13:19:59.030Z,11.80
2022-10-17T13:22:33.075Z,12.50
2022-10-17T13:25:17.486Z,12.60
2022-10-17T13:27:47.160Z,12.20
2022-10-17T13:30:32.823Z,11.70
2022-10-17T13:33:03.275Z,12.30
2022-10-17T13:38:34.891Z,11.70
2022-10-17T13:41:34.676Z,11.90
2022-10-17T13:44:11.660Z,10.40
2022-10-17T13:46:41.389Z,11.40
2022-10-17T13:49:34.162Z,11.50
2022-10-17T13:52:06.339Z,12.60
2022-10-17T13:54:40.130Z,11.10
2022-10-17T13:57:28.258Z,10.80
2022-10-17T14:00:00.878Z,11.20
2022-10-17T14:02:32.606Z,11.50
2022-10-17T14:05:17.264Z,11.00
2022-10-17T14:08:12.467Z,10.80
2022-10-17T14:10:43.892Z,11.30
2022-10-17T14:13:28.789Z,12.70
2022-10-17T14:16:03.064Z,11.00
2022-10-17T14:18:36.599Z,11.40
2022-10-17T14:24:23.351Z,10.40
2022-10-17T14:26:59.507Z,11.20
2022-10-17T14:29:31.965Z,11.40
2022-10-17T14:32:08.690Z,10.40
2022-10-17T14:34:40.690Z,10.90
2022-10-17T14:37:32.375Z,10.60
2022-10-17T14:40:02.962Z,10.70
2022-10-17T14:42:31.662Z,11.50
2022-10-17T14:45:12.555Z,11.90
2022-10-17T14:47:44.188Z,11.70
2022-10-17T14:50:12.806Z,10.70
2022-10-17T14:52:43.079Z,11.40
2022-10-17T14:55:27.366Z,10.20
2022-10-17T14:57:56.311Z,10.00
2022-10-17T15:00:25.761Z,10.20
2022-10-17T15:02:55.732Z,10.40
2022-10-17T15:05:25.030Z,11.20
2022-10-17T15:07:53.732Z,11.40
2022-10-17T15:10:34.551Z,10.60
2022-10-17T15:13:26.785Z,11.00
2022-10-17T15:15:52.599Z,10.70
2022-10-17T15:18:20.938Z,10.30
2022-10-17T15:20:55.381Z,12.80
2022-10-17T15:23:33.254Z,10.50
2022-10-17T15:26:01.986Z,11.00
2022-10-17T15:28:30.369Z,11.20
2022-10-17T15:30:58.618Z,9.40
2022-10-17T15:33:27.136Z,9.70
2022-10-17T15:35:55.616Z,9.70
2022-10-17T15:38:23.951Z,10.00
2022-10-17T15:40:52.211Z,10.20
2022-10-17T15:43:22.924Z,9.20
2022-10-17T15:45:51.173Z,10.30
2022-10-17T15:48:28.369Z,10.00
2022-10-17T15:50:56.822Z,10.50
2022-10-17T15:53:25.069Z,10.10
2022-10-17T15:55:53.498Z,9.40
2022-10-17T15:58:21.859Z,10.80
2022-10-17T16:00:50.274Z,10.60
2022-10-17T16:03:18.568Z,10.30
2022-10-17T16:05:46.934Z,10.00
2022-10-17T16:08:15.319Z,10.30
2022-10-17T16:10:44.196Z,9.90
2022-10-17T16:13:18.606Z,9.10
2022-10-17T16:15:47.182Z,10.80
2022-10-17T16:18:15.569Z,10.60
2022-10-17T16:20:43.860Z,10.00
2022-10-17T16:23:14.368Z,14.70
2022-10-17T16:25:42.686Z,11.00
2022-10-17T16:28:12.040Z,10.40
2022-10-17T16:30:46.108Z,10.60
2022-10-17T16:33:14.683Z,10.60
2022-10-17T16:35:43.115Z,12.10
2022-10-17T16:38:11.539Z,11.70
2022-10-17T16:40:40.331Z,9.10
2022-10-17T16:43:14.923Z,10.20
2022-10-17T16:45:43.328Z,11.60
2022-10-17T16:48:12.280Z,10.70
2022-10-17T16:50:40.687Z,10.10
2022-10-17T16:53:09.004Z,10.30
2022-10-17T16:55:37.298Z,10.70
2022-10-17T16:58:07.029Z,9.60
2022-10-17T17:00:35.716Z,8.20
2022-10-17T17:03:04.604Z,9.70
2022-10-17T17:05:32.949Z,9.00
2022-10-17T17:08:03.424Z,9.00
2022-10-17T17:10:31.702Z,8.30
2022-10-17T17:13:01.669Z,8.90
2022-10-17T17:15:30.410Z,9.80
2022-10-17T17:18:02.683Z,9.70
2022-10-17T17:20:34.035Z,8.20
2022-10-17T17:23:02.225Z,9.80
2022-10-17T17:25:30.523Z,9.50
2022-10-17T17:27:58.855Z,8.70
2022-10-17T17:30:27.356Z,9.10
2022-10-17T17:32:56.135Z,8.60
2022-10-17T17:35:24.351Z,9.60
2022-10-17T17:37:52.594Z,10.50
2022-10-17T17:40:20.856Z,10.30
2022-10-17T17:42:49.138Z,9.60
2022-10-17T17:45:17.583Z,9.10
2022-10-17T17:47:45.898Z,10.40
2022-10-17T17:50:14.181Z,10.00
2022-10-17T17:52:45.576Z,8.80
2022-10-17T17:55:13.940Z,8.30
2022-10-17T17:57:42.183Z,8.30
2022-10-17T18:00:14.807Z,8.90
2022-10-17T18:02:44.562Z,8.80
2022-10-17T18:05:13.738Z,8.80
2022-10-17T18:07:42.510Z,8.60
2022-10-17T18:12:43.958Z,9.90
2022-10-17T18:15:13.266Z,10.50
2022-10-17T18:17:41.815Z,10.10
2022-10-17T18:20:10.724Z,10.20
2022-10-17T18:22:39.412Z,9.70
2022-10-17T18:25:11.875Z,8.70
2022-10-17T18:27:40.251Z,9.20
2022-10-17T18:30:09.276Z,9.20
2022-10-17T18:32:38.447Z,8.60
2022-10-17T18:35:09.339Z,10.00
2022-10-17T18:37:37.903Z,8.30
2022-10-17T18:40:07.321Z,8.10
2022-10-17T18:42:35.625Z,9.30
2022-10-17T18:45:06.301Z,8.90
2022-10-17T18:47:34.621Z,8.50
2022-10-17T18:50:07.119Z,9.20
2022-10-17T18:52:36.133Z,8.20
2022-10-17T18:55:04.987Z,7.90
2022-10-17T18:57:33.271Z,9.10
2022-10-17T19:00:02.060Z,8.90
2022-10-17T19:02:34.296Z,8.30
2022-10-17T19:05:04.231Z,7.20
2022-10-17T19:07:32.625Z,6.60
2022-10-17T19:10:01.598Z,7.20
2022-10-17T19:12:29.893Z,6.40
2022-10-17T19:14:58.215Z,6.40
2022-10-17T19:17:26.526Z,6.50
2022-10-17T19:19:55.249Z,6.30
2022-10-17T19:22:23.456Z,5.90
2022-10-17T19:24:51.673Z,5.70
2022-10-17T19:27:20.630Z,6.90
2022-10-17T19:29:48.913Z,6.50
2022-10-17T19:32:20.629Z,5.80
2022-10-17T19:34:51.005Z,5.60
2022-10-17T19:37:19.204Z,6.30
2022-10-17T19:39:49.220Z,5.20
2022-10-17T19:42:17.396Z,6.30
2022-10-17T19:44:45.850Z,6.00
2022-10-17T19:47:14.082Z,5.80
2022-10-17T19:49:45.372Z,6.20
2022-10-17T19:52:15.952Z,6.30
2022-10-17T19:54:44.173Z,6.60
2022-10-17T19:57:12.393Z,6.00
2022-10-17T19:59:40.584Z,5.50
2022-10-17T20:02:13.019Z,5.60
2022-10-17T20:04:49.675Z,5.90
2022-10-17T20:07:29.598Z,7.20
2022-10-17T20:09:57.851Z,5.80
2022-10-17T20:12:26.128Z,6.90
2022-10-17T20:14:54.324Z,6.10
2022-10-17T20:17:22.779Z,5.70
2022-10-17T20:19:51.175Z,5.70
2022-10-17T20:22:19.396Z,5.80
2022-10-17T20:24:47.633Z,6.50
2022-10-17T20:27:15.814Z,6.80
2022-10-17T20:29:44.004Z,5.70
2022-10-17T20:32:12.407Z,5.40
2022-10-17T20:34:40.930Z,5.40
2022-10-17T20:37:09.101Z,5.50
2022-10-17T20:39:37.326Z,4.70
2022-10-17T20:42:05.783Z,6.40
2022-10-17T20:44:34.057Z,5.80
2022-10-17T20:47:02.919Z,5.60
2022-10-17T20:49:32.589Z,4.80
2022-10-17T20:52:01.518Z,5.70
2022-10-17T20:54:30.069Z,5.80
2022-10-17T20:57:01.166Z,6.00
2022-10-17T20:59:35.196Z,5.40
2022-10-17T21:02:05.503Z,6.30
2022-10-17T21:04:46.017Z,5.90
2022-10-17T21:07:15.451Z,5.70
2022-10-17T21:09:43.790Z,5.40
2022-10-17T21:12:18.088Z,5.50
2022-10-17T21:14:54.467Z,5.30
2022-10-17T21:17:22.759Z,6.00
2022-10-17T21:19:51.100Z,5.90
2022-10-17T21:22:19.364Z,6.00
2022-10-17T21:24:47.571Z,5.30
2022-10-17T21:27:19.315Z,5.90
2022-10-17T21:29:48.553Z,5.30
2022-10-17T21:32:31.823Z,5.50
2022-10-17T21:35:05.628Z,6.10
2022-10-17T21:37:33.836Z,5.50
2022-10-17T21:40:02.045Z,6.60
2022-10-17T21:42:30.494Z,6.30
2022-10-17T21:44:59.067Z,6.50
2022-10-17T21:47:27.769Z,5.00
2022-10-17T21:49:56.131Z,5.30
2022-10-17T21:52:24.413Z,5.80
2022-10-17T21:54:52.692Z,5.40
2022-10-17T21:57:20.959Z,4.50
2022-10-17T21:59:49.125Z,5.80
2022-10-17T22:02:17.498Z,4.50
2022-10-17T22:04:45.706Z,4.80
2022-10-17T22:07:14.065Z,6.50
2022-10-17T22:09:42.245Z,6.20
2022-10-17T22:12:10.509Z,5.00
2022-10-17T22:14:38.834Z,5.10
2022-10-17T22:17:07.160Z,5.90
2022-10-17T22:19:35.356Z,5.20
2022-10-17T22:22:03.729Z,5.30
2022-10-17T22:24:32.002Z,5.90
2022-10-17T22:27:00.259Z,6.90
2022-10-17T22:29:28.545Z,5.80
2022-10-17T22:31:56.713Z,6.90
2022-10-17T22:34:25.157Z,6.20
2022-10-17T22:36:53.375Z,5.60
2022-10-17T22:39:21.579Z,5.90
2022-10-17T22:41:49.793Z,6.10
2022-10-17T22:44:18.046Z,5.60
2022-10-17T22:46:46.246Z,5.10
2022-10-17T22:49:14.566Z,5.80
2022-10-17T22:51:42.767Z,5.90
2022-10-17T22:54:11.011Z,6.10
2022-10-17T22:56:39.217Z,7.30
2022-10-17T22:59:07.526Z,5.30
2022-10-17T23:01:35.785Z,5.90
2022-10-17T23:04:04.376Z,6.30
2022-10-17T23:06:32.697Z,6.30
2022-10-17T23:09:00.967Z,5.80
2022-10-17T23:11:29.207Z,5.40
2022-10-17T23:13:57.419Z,5.80
2022-10-17T23:16:25.753Z,6.70
2022-10-17T23:18:53.936Z,6.00
2022-10-17T23:21:22.235Z,5.80
2022-10-17T23:23:50.422Z,6.40
2022-10-17T23:26:18.859Z,6.50
2022-10-17T23:28:47.195Z,5.50
2022-10-17T23:31:20.775Z,6.40
2022-10-17T23:33:49.889Z,6.40
2022-10-17T23:36:20.731Z,5.90
2022-10-17T23:38:50.190Z,6.70
2022-10-17T23:41:19.155Z,6.50
2022-10-17T23:43:47.374Z,6.40
2022-10-17T23:46:15.603Z,6.10
2022-10-17T23:48:43.799Z,6.30
2022-10-17T23:51:12.143Z,6.10
2022-10-17T23:53:41.108Z,5.90
2022-10-17T23:56:10.458Z,5.80
2022-10-17T23:58:39.337Z,5.80
